Otagawa — JD3046 — position and weather

sailwx.info

Track history (hours):
 
Tides and Currents Weather Stations Pressure Air Temp Water Temp Dewpoint Dewpoint Depression Visibility Wind Speed Wind Dir Waves Ship Positions

Otagawa

Last reported at 2016-Aug-26 19:32 UTC. Time now 2016-Aug-29 19:55 UTC.
Position N 35°04' E 140°17'.

Length 70 m; draft 3.7 m.

Type: Ship. MMSI: 431001328.

Date/timePositionNaut miles runAvg speedWind from/ knotsBaromVisibWave heightAir tempDewpointWater temp
2016-Aug-26 19:32N 35°04' E 140°17'1110.8
2016-Aug-26 18:31N 34°57' E 140°06'18 7.6
2016-Aug-26 16:06N 35°01' E 139°44'610.6
2016-Aug-26 15:33N 35°07' E 139°45'1010.4
2016-Aug-26 14:33N 35°17' E 139°45'7 7.5
2016-Aug-26 13:33N 35°24' E 139°41'0 0.0
2016-Aug-26 12:33N 35°24' E 139°41'9 8.7
2016-Aug-26 11:33N 35°30' E 139°49'8 7.6
2016-Aug-26 10:33N 35°37' E 139°46'0 0.0
2016-Aug-26 09:33N 35°37' E 139°46'0 0.0
2016-Aug-26 08:33N 35°37' E 139°46'0 0.0
2016-Aug-26 07:34N 35°37' E 139°46'0 0.0
2016-Aug-26 06:33N 35°37' E 139°46'2 1.2
2016-Aug-26 04:33N 35°35' E 139°48'7 7.2
2016-Aug-26 03:33N 35°28' E 139°46'5 4.9
2016-Aug-26 02:33N 35°27' E 139°40'0 0.2
2016-Aug-26 01:33N 35°27' E 139°41'1 0.6
2016-Aug-26 00:33N 35°26' E 139°41'7 6.7
2016-Aug-25 23:33N 35°20' E 139°43'1110.8
2016-Aug-25 22:33N 35°09' E 139°46'1110.9
2016-Aug-25 21:33N 34°58' E 139°44'12 9.4
2016-Aug-25 20:18N 34°53' E 139°57'811.3
2016-Aug-25 19:33N 34°57' E 140°05'1010.2
2016-Aug-25 18:33N 35°02' E 140°16'1110.0
2016-Aug-25 17:29N 35°09' E 140°27'1010.4
2016-Aug-25 16:33N 35°16' E 140°34'1110.8
2016-Aug-25 15:33N 35°25' E 140°42'1111.2
2016-Aug-25 14:33N 35°34' E 140°49'1110.8
2016-Aug-25 13:33N 35°44' E 140°55'10 9.9
2016-Aug-25 12:33N 35°54' E 140°56'1111.1
2016-Aug-25 11:33N 36°05' E 140°58'  
2016-Aug-18 02:29N 35°03' E 140°16'1212.2
2016-Aug-18 01:32N 34°56' E 140°04'17 8.4
2016-Aug-17 23:27N 35°01' E 139°43'1011.2
2016-Aug-17 22:33N 35°10' E 139°46'1110.9
2016-Aug-17 21:33N 35°21' E 139°43'1010.3
2016-Aug-17 20:33N 35°29' E 139°50'6 5.7
2016-Aug-17 19:33N 35°34' E 139°54'0 0.0
2016-Aug-17 18:32N 35°34' E 139°54'0 0.0
2016-Aug-17 17:32N 35°34' E 139°54'0 0.0
2016-Aug-17 16:32N 35°34' E 139°54'0 0.0
2016-Aug-17 15:32N 35°34' E 139°54'0 0.0
2016-Aug-17 14:32N 35°34' E 139°54'0 0.0
2016-Aug-17 13:32N 35°34' E 139°54'0 0.0
2016-Aug-17 12:32N 35°34' E 139°54'0 0.0
2016-Aug-17 11:29N 35°34' E 139°54'0 0.0
2016-Aug-17 10:33N 35°34' E 139°54'0 0.0
2016-Aug-17 09:33N 35°34' E 139°54'0 0.0
2016-Aug-17 08:33N 35°34' E 139°54'0 0.0
2016-Aug-17 07:33N 35°34' E 139°54'0 0.0
2016-Aug-17 06:20N 35°34' E 139°54'0 0.0
2016-Aug-17 03:33N 35°34' E 139°54'0 0.0
2016-Aug-17 02:31N 35°34' E 139°54'0 0.0
2016-Aug-17 01:33N 35°34' E 139°54'0 0.0
2016-Aug-17 00:34N 35°34' E 139°54'0 0.0
2016-Aug-16 23:29N 35°34' E 139°54'0 0.0
2016-Aug-16 22:30N 35°34' E 139°54'0 0.0
2016-Aug-16 21:34N 35°34' E 139°54'0 0.0
2016-Aug-16 20:29N 35°34' E 139°54'  
Track history (hours):
 
Tides and Currents Weather Stations Pressure Air Temp Water Temp Dewpoint Dewpoint Depression Visibility Wind Speed Wind Dir Waves Ship Positions

Otagawa

Last reported at 2016-Aug-26 19:32 UTC. Time now 2016-Aug-29 19:55 UTC.
Position N 35°04' E 140°17'.

Length 70 m; draft 3.7 m.

Type: Ship. MMSI: 431001328.

Date/timePositionNaut miles runAvg speedWind from/ knotsBaromVisibWave heightAir tempDewpointWater temp
2016-Aug-26 19:32N 35°04' E 140°17'1110.8
2016-Aug-26 18:31N 34°57' E 140°06'18 7.6
2016-Aug-26 16:06N 35°01' E 139°44'610.6
2016-Aug-26 15:33N 35°07' E 139°45'1010.4
2016-Aug-26 14:33N 35°17' E 139°45'7 7.5
2016-Aug-26 13:33N 35°24' E 139°41'0 0.0
2016-Aug-26 12:33N 35°24' E 139°41'9 8.7
2016-Aug-26 11:33N 35°30' E 139°49'8 7.6
2016-Aug-26 10:33N 35°37' E 139°46'0 0.0
2016-Aug-26 09:33N 35°37' E 139°46'0 0.0
2016-Aug-26 08:33N 35°37' E 139°46'0 0.0
2016-Aug-26 07:34N 35°37' E 139°46'0 0.0
2016-Aug-26 06:33N 35°37' E 139°46'2 1.2
2016-Aug-26 04:33N 35°35' E 139°48'7 7.2
2016-Aug-26 03:33N 35°28' E 139°46'5 4.9
2016-Aug-26 02:33N 35°27' E 139°40'0 0.2
2016-Aug-26 01:33N 35°27' E 139°41'1 0.6
2016-Aug-26 00:33N 35°26' E 139°41'7 6.7
2016-Aug-25 23:33N 35°20' E 139°43'1110.8
2016-Aug-25 22:33N 35°09' E 139°46'1110.9
2016-Aug-25 21:33N 34°58' E 139°44'12 9.4
2016-Aug-25 20:18N 34°53' E 139°57'811.3
2016-Aug-25 19:33N 34°57' E 140°05'1010.2
2016-Aug-25 18:33N 35°02' E 140°16'1110.0
2016-Aug-25 17:29N 35°09' E 140°27'1010.4
2016-Aug-25 16:33N 35°16' E 140°34'1110.8
2016-Aug-25 15:33N 35°25' E 140°42'1111.2
2016-Aug-25 14:33N 35°34' E 140°49'1110.8
2016-Aug-25 13:33N 35°44' E 140°55'10 9.9
2016-Aug-25 12:33N 35°54' E 140°56'1111.1
2016-Aug-25 11:33N 36°05' E 140°58'  
2016-Aug-18 02:29N 35°03' E 140°16'1212.2
2016-Aug-18 01:32N 34°56' E 140°04'17 8.4
2016-Aug-17 23:27N 35°01' E 139°43'1011.2
2016-Aug-17 22:33N 35°10' E 139°46'1110.9
2016-Aug-17 21:33N 35°21' E 139°43'1010.3
2016-Aug-17 20:33N 35°29' E 139°50'6 5.7
2016-Aug-17 19:33N 35°34' E 139°54'0 0.0
2016-Aug-17 18:32N 35°34' E 139°54'0 0.0
2016-Aug-17 17:32N 35°34' E 139°54'0 0.0
2016-Aug-17 16:32N 35°34' E 139°54'0 0.0
2016-Aug-17 15:32N 35°34' E 139°54'0 0.0
2016-Aug-17 14:32N 35°34' E 139°54'0 0.0
2016-Aug-17 13:32N 35°34' E 139°54'0 0.0
2016-Aug-17 12:32N 35°34' E 139°54'0 0.0
2016-Aug-17 11:29N 35°34' E 139°54'0 0.0
2016-Aug-17 10:33N 35°34' E 139°54'0 0.0
2016-Aug-17 09:33N 35°34' E 139°54'0 0.0
2016-Aug-17 08:33N 35°34' E 139°54'0 0.0
2016-Aug-17 07:33N 35°34' E 139°54'0 0.0
2016-Aug-17 06:20N 35°34' E 139°54'0 0.0
2016-Aug-17 03:33N 35°34' E 139°54'0 0.0
2016-Aug-17 02:31N 35°34' E 139°54'0 0.0
2016-Aug-17 01:33N 35°34' E 139°54'0 0.0
2016-Aug-17 00:34N 35°34' E 139°54'0 0.0
2016-Aug-16 23:29N 35°34' E 139°54'0 0.0
2016-Aug-16 22:30N 35°34' E 139°54'0 0.0
2016-Aug-16 21:34N 35°34' E 139°54'0 0.0
2016-Aug-16 20:29N 35°34' E 139°54'  

Dump ship's entire track history